sensor_id;sensor_type;location;lat;lon;timestamp;P1;durP1;ratioP1;P2;durP2;ratioP2
40459;SDS011;26164;51.138;16.952;2024-02-28T00:01:47;115.75;;;40.70;;
40459;SDS011;26164;51.138;16.952;2024-02-28T00:04:20;130.68;;;46.17;;
40459;SDS011;26164;51.138;16.952;2024-02-28T00:07:02;119.72;;;43.55;;
40459;SDS011;26164;51.138;16.952;2024-02-28T00:09:35;122.10;;;43.80;;
40459;SDS011;26164;51.138;16.952;2024-02-28T00:12:01;133.02;;;46.25;;
40459;SDS011;26164;51.138;16.952;2024-02-28T00:14:28;126.15;;;45.72;;
40459;SDS011;26164;51.138;16.952;2024-02-28T00:17:01;125.47;;;46.60;;
40459;SDS011;26164;51.138;16.952;2024-02-28T00:23:07;118.82;;;45.13;;
40459;SDS011;26164;51.138;16.952;2024-02-28T00:26:19;123.20;;;46.53;;
40459;SDS011;26164;51.138;16.952;2024-02-28T00:29:05;119.70;;;43.33;;
40459;SDS011;26164;51.138;16.952;2024-02-28T00:31:59;121.35;;;44.10;;
40459;SDS011;26164;51.138;16.952;2024-02-28T00:34:41;126.38;;;46.97;;
40459;SDS011;26164;51.138;16.952;2024-02-28T00:37:35;127.45;;;45.67;;
40459;SDS011;26164;51.138;16.952;2024-02-28T00:40:26;125.68;;;47.63;;
40459;SDS011;26164;51.138;16.952;2024-02-28T00:42:57;134.05;;;48.30;;
40459;SDS011;26164;51.138;16.952;2024-02-28T00:45:46;124.40;;;45.95;;
40459;SDS011;26164;51.138;16.952;2024-02-28T00:48:31;127.75;;;47.50;;
40459;SDS011;26164;51.138;16.952;2024-02-28T00:52:01;130.95;;;46.13;;
40459;SDS011;26164;51.138;16.952;2024-02-28T00:55:53;133.70;;;48.38;;
40459;SDS011;26164;51.138;16.952;2024-02-28T00:59:14;134.95;;;49.35;;
40459;SDS011;26164;51.138;16.952;2024-02-28T01:02:23;146.82;;;50.75;;
40459;SDS011;26164;51.138;16.952;2024-02-28T01:08:27;158.35;;;52.22;;
40459;SDS011;26164;51.138;16.952;2024-02-28T01:26:49;180.57;;;53.80;;
40459;SDS011;26164;51.138;16.952;2024-02-28T01:29:26;168.45;;;53.80;;
40459;SDS011;26164;51.138;16.952;2024-02-28T01:32:21;170.95;;;54.60;;
40459;SDS011;26164;51.138;16.952;2024-02-28T01:35:22;170.18;;;53.75;;
40459;SDS011;26164;51.138;16.952;2024-02-28T01:38:16;178.77;;;51.85;;
40459;SDS011;26164;51.138;16.952;2024-02-28T01:41:28;153.63;;;51.25;;
40459;SDS011;26164;51.138;16.952;2024-02-28T01:43:59;182.15;;;56.33;;
40459;SDS011;26164;51.138;16.952;2024-02-28T01:46:27;197.07;;;56.10;;
40459;SDS011;26164;51.138;16.952;2024-02-28T01:49:17;218.88;;;56.85;;
40459;SDS011;26164;51.138;16.952;2024-02-28T01:52:06;229.00;;;56.47;;
40459;SDS011;26164;51.138;16.952;2024-02-28T01:57:10;279.17;;;49.50;;
40459;SDS011;26164;51.138;16.952;2024-02-28T01:59:37;338.13;;;51.88;;
40459;SDS011;26164;51.138;16.952;2024-02-28T02:02:15;463.05;;;59.28;;
40459;SDS011;26164;51.138;16.952;2024-02-28T02:21:52;302.70;;;58.30;;
40459;SDS011;26164;51.138;16.952;2024-02-28T02:24:41;346.23;;;61.35;;
40459;SDS011;26164;51.138;16.952;2024-02-28T02:27:25;403.73;;;59.22;;
40459;SDS011;26164;51.138;16.952;2024-02-28T03:44:57;320.43;;;61.23;;
40459;SDS011;26164;51.138;16.952;2024-02-28T03:48:01;415.40;;;60.08;;
40459;SDS011;26164;51.138;16.952;2024-02-28T03:54:49;353.13;;;57.60;;
40459;SDS011;26164;51.138;16.952;2024-02-28T03:57:47;381.25;;;58.88;;
40459;SDS011;26164;51.138;16.952;2024-02-28T04:04:19;385.38;;;58.50;;
40459;SDS011;26164;51.138;16.952;2024-02-28T04:07:29;410.35;;;60.33;;
40459;SDS011;26164;51.138;16.952;2024-02-28T04:10:36;420.63;;;55.22;;
40459;SDS011;26164;51.138;16.952;2024-02-28T04:13:43;331.98;;;57.40;;
40459;SDS011;26164;51.138;16.952;2024-02-28T04:17:06;379.08;;;57.75;;
40459;SDS011;26164;51.138;16.952;2024-02-28T04:20:20;453.17;;;54.25;;
40459;SDS011;26164;51.138;16.952;2024-02-28T04:22:58;437.38;;;56.28;;
40459;SDS011;26164;51.138;16.952;2024-02-28T04:26:57;433.00;;;57.30;;
40459;SDS011;26164;51.138;16.952;2024-02-28T04:29:42;413.35;;;53.65;;
40459;SDS011;26164;51.138;16.952;2024-02-28T04:32:18;445.67;;;55.83;;
40459;SDS011;26164;51.138;16.952;2024-02-28T04:35:17;372.33;;;60.17;;
40459;SDS011;26164;51.138;16.952;2024-02-28T04:57:20;216.88;;;50.42;;
40459;SDS011;26164;51.138;16.952;2024-02-28T05:00:31;248.45;;;49.65;;
40459;SDS011;26164;51.138;16.952;2024-02-28T05:03:42;210.15;;;48.33;;
40459;SDS011;26164;51.138;16.952;2024-02-28T05:06:55;209.18;;;49.83;;
40459;SDS011;26164;51.138;16.952;2024-02-28T05:09:51;215.52;;;48.00;;
40459;SDS011;26164;51.138;16.952;2024-02-28T05:12:41;214.15;;;43.42;;
40459;SDS011;26164;51.138;16.952;2024-02-28T05:15:51;226.45;;;44.00;;
40459;SDS011;26164;51.138;16.952;2024-02-28T05:24:14;163.90;;;37.72;;
40459;SDS011;26164;51.138;16.952;2024-02-28T05:27:01;162.98;;;40.65;;
40459;SDS011;26164;51.138;16.952;2024-02-28T05:29:48;167.82;;;40.80;;
40459;SDS011;26164;51.138;16.952;2024-02-28T05:50:01;120.38;;;34.70;;
40459;SDS011;26164;51.138;16.952;2024-02-28T05:55:19;127.50;;;37.25;;
40459;SDS011;26164;51.138;16.952;2024-02-28T05:57:48;115.93;;;33.15;;
40459;SDS011;26164;51.138;16.952;2024-02-28T06:00:14;111.05;;;32.95;;
40459;SDS011;26164;51.138;16.952;2024-02-28T06:02:40;120.18;;;33.20;;
40459;SDS011;26164;51.138;16.952;2024-02-28T06:05:08;108.75;;;35.20;;
40459;SDS011;26164;51.138;16.952;2024-02-28T06:07:35;120.93;;;37.08;;
40459;SDS011;26164;51.138;16.952;2024-02-28T06:10:01;120.70;;;36.88;;
40459;SDS011;26164;51.138;16.952;2024-02-28T06:12:28;122.60;;;35.95;;
40459;SDS011;26164;51.138;16.952;2024-02-28T06:14:56;106.95;;;33.90;;
40459;SDS011;26164;51.138;16.952;2024-02-28T06:17:50;113.60;;;34.70;;
40459;SDS011;26164;51.138;16.952;2024-02-28T06:20:16;97.15;;;33.05;;
40459;SDS011;26164;51.138;16.952;2024-02-28T06:59:33;58.45;;;22.75;;
40459;SDS011;26164;51.138;16.952;2024-02-28T16:18:03;47.47;;;19.38;;
40459;SDS011;26164;51.138;16.952;2024-02-28T18:00:41;57.25;;;19.98;;
40459;SDS011;26164;51.138;16.952;2024-02-28T18:03:12;64.85;;;20.05;;
40459;SDS011;26164;51.138;16.952;2024-02-28T18:11:54;68.88;;;21.42;;
40459;SDS011;26164;51.138;16.952;2024-02-28T19:31:53;82.53;;;27.85;;
40459;SDS011;26164;51.138;16.952;2024-02-28T19:35:13;78.22;;;27.38;;
40459;SDS011;26164;51.138;16.952;2024-02-28T19:38:21;74.70;;;26.27;;
40459;SDS011;26164;51.138;16.952;2024-02-28T19:52:50;88.00;;;27.25;;
40459;SDS011;26164;51.138;16.952;2024-02-28T19:56:13;77.80;;;27.27;;
40459;SDS011;26164;51.138;16.952;2024-02-28T19:59:23;83.47;;;27.53;;
40459;SDS011;26164;51.138;16.952;2024-02-28T20:02:34;81.85;;;26.48;;
40459;SDS011;26164;51.138;16.952;2024-02-28T20:05:17;78.07;;;25.50;;
40459;SDS011;26164;51.138;16.952;2024-02-28T20:08:07;87.50;;;27.15;;
40459;SDS011;26164;51.138;16.952;2024-02-28T20:10:52;96.00;;;30.35;;
40459;SDS011;26164;51.138;16.952;2024-02-28T20:16:29;95.28;;;27.38;;
40459;SDS011;26164;51.138;16.952;2024-02-28T20:24:54;94.38;;;27.08;;
40459;SDS011;26164;51.138;16.952;2024-02-28T20:30:36;86.15;;;26.30;;
40459;SDS011;26164;51.138;16.952;2024-02-28T20:33:18;76.95;;;22.80;;
40459;SDS011;26164;51.138;16.952;2024-02-28T20:36:04;69.75;;;22.40;;
40459;SDS011;26164;51.138;16.952;2024-02-28T20:38:50;61.53;;;18.92;;
40459;SDS011;26164;51.138;16.952;2024-02-28T20:41:55;61.42;;;18.33;;
40459;SDS011;26164;51.138;16.952;2024-02-28T20:44:36;72.32;;;22.00;;
40459;SDS011;26164;51.138;16.952;2024-02-28T20:50:13;77.25;;;23.15;;
40459;SDS011;26164;51.138;16.952;2024-02-28T20:53:01;75.43;;;23.27;;
40459;SDS011;26164;51.138;16.952;2024-02-28T20:55:49;74.95;;;21.85;;
40459;SDS011;26164;51.138;16.952;2024-02-28T20:58:37;85.40;;;24.80;;
40459;SDS011;26164;51.138;16.952;2024-02-28T21:01:20;80.25;;;24.38;;
40459;SDS011;26164;51.138;16.952;2024-02-28T21:04:05;79.53;;;23.23;;
40459;SDS011;26164;51.138;16.952;2024-02-28T21:06:46;81.53;;;24.63;;
40459;SDS011;26164;51.138;16.952;2024-02-28T21:09:28;82.55;;;24.80;;
40459;SDS011;26164;51.138;16.952;2024-02-28T21:12:13;72.00;;;22.77;;
40459;SDS011;26164;51.138;16.952;2024-02-28T21:14:55;76.88;;;23.35;;
40459;SDS011;26164;51.138;16.952;2024-02-28T21:17:45;61.03;;;19.48;;
40459;SDS011;26164;51.138;16.952;2024-02-28T21:20:29;72.72;;;23.88;;
40459;SDS011;26164;51.138;16.952;2024-02-28T21:23:10;70.63;;;21.60;;
40459;SDS011;26164;51.138;16.952;2024-02-28T21:26:05;79.25;;;23.95;;
40459;SDS011;26164;51.138;16.952;2024-02-28T21:28:48;72.43;;;23.88;;
40459;SDS011;26164;51.138;16.952;2024-02-28T21:31:30;73.00;;;23.00;;
40459;SDS011;26164;51.138;16.952;2024-02-28T21:34:15;70.70;;;23.13;;
40459;SDS011;26164;51.138;16.952;2024-02-28T21:37:16;71.43;;;22.52;;
40459;SDS011;26164;51.138;16.952;2024-02-28T22:05:12;58.20;;;19.70;;
40459;SDS011;26164;51.138;16.952;2024-02-28T22:07:54;55.70;;;19.55;;
40459;SDS011;26164;51.138;16.952;2024-02-28T22:10:39;56.03;;;18.50;;
40459;SDS011;26164;51.138;16.952;2024-02-28T22:13:20;56.15;;;20.27;;
40459;SDS011;26164;51.138;16.952;2024-02-28T22:16:11;53.92;;;20.08;;
40459;SDS011;26164;51.138;16.952;2024-02-28T22:18:50;49.85;;;18.38;;
40459;SDS011;26164;51.138;16.952;2024-02-28T22:21:16;42.65;;;17.08;;
40459;SDS011;26164;51.138;16.952;2024-02-28T23:02:26;45.60;;;18.08;;
40459;SDS011;26164;51.138;16.952;2024-02-28T23:04:58;41.70;;;18.10;;
40459;SDS011;26164;51.138;16.952;2024-02-28T23:07:25;39.08;;;16.98;;
40459;SDS011;26164;51.138;16.952;2024-02-28T23:09:53;41.45;;;17.80;;
40459;SDS011;26164;51.138;16.952;2024-02-28T23:12:22;46.92;;;19.27;;
40459;SDS011;26164;51.138;16.952;2024-02-28T23:15:04;58.53;;;21.40;;
40459;SDS011;26164;51.138;16.952;2024-02-28T23:17:34;52.70;;;20.52;;
40459;SDS011;26164;51.138;16.952;2024-02-28T23:20:21;62.83;;;23.48;;
40459;SDS011;26164;51.138;16.952;2024-02-28T23:23:08;57.10;;;21.20;;
40459;SDS011;26164;51.138;16.952;2024-02-28T23:25:55;64.40;;;23.75;;
40459;SDS011;26164;51.138;16.952;2024-02-28T23:28:36;65.50;;;22.83;;
40459;SDS011;26164;51.138;16.952;2024-02-28T23:31:17;64.32;;;22.48;;
40459;SDS011;26164;51.138;16.952;2024-02-28T23:33:44;64.35;;;24.38;;
40459;SDS011;26164;51.138;16.952;2024-02-28T23:36:13;71.18;;;24.30;;
40459;SDS011;26164;51.138;16.952;2024-02-28T23:38:47;76.90;;;24.47;;
40459;SDS011;26164;51.138;16.952;2024-02-28T23:41:15;66.40;;;23.30;;
40459;SDS011;26164;51.138;16.952;2024-02-28T23:43:55;69.35;;;23.45;;
40459;SDS011;26164;51.138;16.952;2024-02-28T23:46:27;62.08;;;23.48;;
40459;SDS011;26164;51.138;16.952;2024-02-28T23:48:53;68.38;;;22.17;;
40459;SDS011;26164;51.138;16.952;2024-02-28T23:51:42;69.95;;;23.15;;
40459;SDS011;26164;51.138;16.952;2024-02-28T23:54:13;76.22;;;23.52;;
40459;SDS011;26164;51.138;16.952;2024-02-28T23:56:40;66.35;;;23.98;;
40459;SDS011;26164;51.138;16.952;2024-02-28T23:59:20;73.63;;;23.38;;
